Terminal Aerodrome Forecast
Issued by NWS

Home | Current Version | Previous Version | Text Only | Print | Product List | Glossary On
Versions: 1 2 3 4 5 6 7 8 9 10 11 12 13 14 15 16 17 18 19 20 21 22 23 24 25 26 27
000
FTUS43 KGRR 291727
TAFAZO
TAF
KAZO 291727Z 2918/3018 10012KT P6SM SCT150 BKN250
     FM292100 07009KT P6SM OVC100
     FM300000 07008KT P6SM OVC050
     FM300800 07010KT 6SM -RA OVC050
     FM301300 08014G24KT 4SM -RA BR OVC015
     FM301500 09016G26KT 1SM RA BR OVC003=

USA.gov is the U.S. government's official web portal to all federal, state and local government web resources and services.